createdAt,value
2022-12-07T00:00:57.847Z,1013.27
2022-12-07T00:01:57.841Z,1013.27
2022-12-07T00:02:57.770Z,1013.21
2022-12-07T00:03:57.804Z,1013.22
2022-12-07T00:04:57.722Z,1013.20
2022-12-07T00:05:57.711Z,1013.23
2022-12-07T00:06:57.730Z,1013.24
2022-12-07T00:07:57.749Z,1013.21
2022-12-07T00:08:57.683Z,1013.22
2022-12-07T00:09:57.682Z,1013.25
2022-12-07T00:10:57.653Z,1013.26
2022-12-07T00:11:57.672Z,1013.21
2022-12-07T00:12:57.660Z,1013.28
2022-12-07T00:13:57.611Z,1013.26
2022-12-07T00:14:57.623Z,1013.31
2022-12-07T00:15:57.602Z,1013.33
2022-12-07T00:16:57.712Z,1013.29
2022-12-07T00:17:57.599Z,1013.25
2022-12-07T00:18:57.586Z,1013.31
2022-12-07T00:19:57.566Z,1013.25
2022-12-07T00:20:57.530Z,1013.31
2022-12-07T00:21:57.524Z,1013.32
2022-12-07T00:22:57.538Z,1013.30
2022-12-07T00:23:57.557Z,1013.31
2022-12-07T00:24:57.511Z,1013.29
2022-12-07T00:25:57.495Z,1013.28
2022-12-07T00:26:57.479Z,1013.21
2022-12-07T00:27:57.456Z,1013.28
2022-12-07T00:28:57.476Z,1013.28
2022-12-07T00:29:57.447Z,1013.28
2022-12-07T00:30:58.387Z,1013.17
2022-12-07T00:31:57.450Z,1013.20
2022-12-07T00:32:57.408Z,1013.19
2022-12-07T00:33:57.445Z,1013.16
2022-12-07T00:34:57.380Z,1013.15
2022-12-07T00:35:57.378Z,1013.16
2022-12-07T00:36:57.382Z,1013.19
2022-12-07T00:37:57.359Z,1013.15
2022-12-07T00:38:57.342Z,1013.12
2022-12-07T00:39:57.369Z,1013.22
2022-12-07T00:40:57.306Z,1013.19
2022-12-07T00:41:57.327Z,1013.15
2022-12-07T00:42:57.300Z,1013.18
2022-12-07T00:43:58.229Z,1013.17
2022-12-07T00:44:57.282Z,1013.15
2022-12-07T00:45:57.311Z,1013.11
2022-12-07T00:46:57.291Z,1013.04
2022-12-07T00:47:57.231Z,1013.09
2022-12-07T00:48:57.249Z,1013.07
2022-12-07T00:49:57.225Z,1013.05
2022-12-07T00:50:57.194Z,1013.03
2022-12-07T00:51:57.241Z,1012.99
2022-12-07T00:52:57.173Z,1013.05
2022-12-07T00:53:57.174Z,1013.02
2022-12-07T00:54:57.152Z,1013.03
2022-12-07T00:55:57.172Z,1013.11
2022-12-07T00:56:57.131Z,1013.06
2022-12-07T00:57:57.146Z,1013.09
2022-12-07T00:58:57.112Z,1013.05
2022-12-07T00:59:57.143Z,1013.07
2022-12-07T01:00:57.146Z,1013.06
2022-12-07T01:01:57.157Z,1013.08
2022-12-07T01:02:57.141Z,1013.07
2022-12-07T01:03:57.055Z,1013.04
2022-12-07T01:04:57.054Z,1013.03
2022-12-07T01:05:57.043Z,1013.08
2022-12-07T01:06:57.054Z,1013.00
2022-12-07T01:07:57.042Z,1013.01
2022-12-07T01:08:57.000Z,1013.01
2022-12-07T01:09:56.988Z,1012.99
2022-12-07T01:10:56.959Z,1013.00
2022-12-07T01:11:57.003Z,1013.06
2022-12-07T01:12:56.995Z,1013.01
2022-12-07T01:13:56.964Z,1013.05
2022-12-07T01:14:56.954Z,1012.97
2022-12-07T01:15:56.936Z,1013.03
2022-12-07T01:16:56.954Z,1013.03
2022-12-07T01:17:56.896Z,1013.01
2022-12-07T01:18:56.878Z,1013.00
2022-12-07T01:19:56.906Z,1012.98
2022-12-07T01:20:56.891Z,1013.03
2022-12-07T01:21:56.880Z,1012.97
2022-12-07T01:22:56.840Z,1012.89
2022-12-07T01:23:56.864Z,1012.93
2022-12-07T01:24:56.815Z,1012.94
2022-12-07T01:25:56.871Z,1012.92
2022-12-07T01:26:56.833Z,1012.95
2022-12-07T01:27:56.780Z,1012.91
2022-12-07T01:28:56.845Z,1013.02
2022-12-07T01:29:56.788Z,1012.99
2022-12-07T01:30:56.796Z,1012.93
2022-12-07T01:31:56.750Z,1012.96
2022-12-07T01:32:56.722Z,1012.92
2022-12-07T01:33:56.740Z,1012.94
2022-12-07T01:34:56.695Z,1013.01
2022-12-07T01:35:56.717Z,1012.95
2022-12-07T01:36:56.704Z,1012.93
2022-12-07T01:37:56.703Z,1012.91
2022-12-07T01:38:56.697Z,1012.98
2022-12-07T01:39:56.652Z,1013.02
2022-12-07T01:40:56.664Z,1013.03
2022-12-07T01:41:56.649Z,1013.03
2022-12-07T01:42:56.630Z,1013.02
2022-12-07T01:43:56.603Z,1013.07
2022-12-07T01:44:56.594Z,1013.02
2022-12-07T01:45:56.655Z,1013.08
2022-12-07T01:46:56.631Z,1013.11
2022-12-07T01:47:56.581Z,1013.04
2022-12-07T01:48:56.578Z,1013.01
2022-12-07T01:49:56.521Z,1013.06
2022-12-07T01:50:56.554Z,1013.06
2022-12-07T01:51:56.515Z,1013.02
2022-12-07T01:52:56.522Z,1013.03
2022-12-07T01:53:56.491Z,1013.01
2022-12-07T01:54:56.487Z,1013.03
2022-12-07T01:55:56.501Z,1013.00
2022-12-07T01:56:56.462Z,1012.95
2022-12-07T01:57:56.494Z,1012.93
2022-12-07T01:58:56.433Z,1012.95
2022-12-07T01:59:56.430Z,1012.99
2022-12-07T02:00:56.417Z,1012.97
2022-12-07T02:01:56.526Z,1012.98
2022-12-07T02:02:56.438Z,1012.94
2022-12-07T02:03:56.421Z,1012.89
2022-12-07T02:04:56.360Z,1012.87
2022-12-07T02:05:56.365Z,1012.84
2022-12-07T02:06:56.357Z,1012.90
2022-12-07T02:07:56.465Z,1012.86
2022-12-07T02:08:56.370Z,1012.89
2022-12-07T02:09:56.312Z,1012.84
2022-12-07T02:10:56.296Z,1012.84
2022-12-07T02:11:56.309Z,1012.81
2022-12-07T02:12:56.269Z,1012.79
2022-12-07T02:13:56.311Z,1012.84
2022-12-07T02:14:56.251Z,1012.79
2022-12-07T02:15:56.325Z,1012.79
2022-12-07T02:16:56.226Z,1012.86
2022-12-07T02:17:56.216Z,1012.78
2022-12-07T02:18:56.233Z,1012.80
2022-12-07T02:19:56.223Z,1012.85
2022-12-07T02:20:56.208Z,1012.83
2022-12-07T02:21:56.187Z,1012.83
2022-12-07T02:22:56.186Z,1012.84
2022-12-07T02:23:56.182Z,1012.85
2022-12-07T02:24:56.165Z,1012.85
2022-12-07T02:25:56.164Z,1012.86
2022-12-07T02:26:56.137Z,1012.88
2022-12-07T02:27:56.115Z,1012.88
2022-12-07T02:28:56.103Z,1012.90
2022-12-07T02:29:56.099Z,1012.85
2022-12-07T02:30:56.208Z,1012.86
2022-12-07T02:31:56.059Z,1012.86
2022-12-07T02:32:56.732Z,1012.85
2022-12-07T02:33:56.052Z,1012.93
2022-12-07T02:34:56.071Z,1013.02
2022-12-07T02:35:56.030Z,1012.96
2022-12-07T02:36:56.030Z,1012.97
2022-12-07T02:37:56.015Z,1013.00
2022-12-07T02:38:55.987Z,1012.95
2022-12-07T02:39:56.002Z,1012.96
2022-12-07T02:40:55.960Z,1012.94
2022-12-07T02:41:55.950Z,1012.98
2022-12-07T02:42:55.974Z,1012.96
2022-12-07T02:43:56.921Z,1012.89
2022-12-07T02:44:55.932Z,1012.97
2022-12-07T02:45:55.979Z,1012.92
2022-12-07T02:46:55.895Z,1012.87
2022-12-07T02:47:55.883Z,1012.88
2022-12-07T02:48:55.902Z,1012.91
2022-12-07T02:49:55.884Z,1012.86
2022-12-07T02:50:55.845Z,1012.87
2022-12-07T02:51:55.834Z,1012.82
2022-12-07T02:52:55.814Z,1012.87
2022-12-07T02:53:55.841Z,1012.89
2022-12-07T02:54:55.804Z,1012.89
2022-12-07T02:55:55.855Z,1012.92
2022-12-07T02:56:55.776Z,1012.88
2022-12-07T02:57:55.776Z,1012.92
2022-12-07T02:58:55.778Z,1012.91
2022-12-07T02:59:55.754Z,1012.91
2022-12-07T03:00:55.726Z,1012.92
2022-12-07T03:01:55.781Z,1012.93
2022-12-07T03:02:55.768Z,1012.95
2022-12-07T03:03:55.738Z,1012.89
2022-12-07T03:04:55.693Z,1012.90
2022-12-07T03:05:55.709Z,1012.87
2022-12-07T03:06:55.669Z,1012.93
2022-12-07T03:07:55.730Z,1012.89
2022-12-07T03:08:55.676Z,1012.92
2022-12-07T03:09:55.638Z,1012.87
2022-12-07T03:10:55.621Z,1012.91
2022-12-07T03:11:55.657Z,1012.90
2022-12-07T03:12:55.595Z,1012.92
2022-12-07T03:13:55.601Z,1012.97
2022-12-07T03:14:55.601Z,1012.95
2022-12-07T03:15:55.633Z,1012.99
2022-12-07T03:16:57.519Z,1012.97
2022-12-07T03:17:55.546Z,1012.96
2022-12-07T03:18:55.529Z,1013.00
2022-12-07T03:19:55.539Z,1012.98
2022-12-07T03:20:55.572Z,1012.98
2022-12-07T03:21:55.581Z,1013.02
2022-12-07T03:22:55.503Z,1012.94
2022-12-07T03:23:55.480Z,1012.97
2022-12-07T03:24:55.463Z,1012.99
2022-12-07T03:26:00.186Z,1012.87
2022-12-07T03:26:56.430Z,1012.97
2022-12-07T03:27:55.461Z,1012.98
2022-12-07T03:28:55.414Z,1012.92
2022-12-07T03:29:55.410Z,1012.91
2022-12-07T03:30:55.461Z,1012.89
2022-12-07T03:31:55.414Z,1012.94
2022-12-07T03:32:55.421Z,1012.89
2022-12-07T03:33:55.362Z,1012.91
2022-12-07T03:34:55.355Z,1012.91
2022-12-07T03:35:55.354Z,1012.91
2022-12-07T03:36:55.323Z,1012.93
2022-12-07T03:37:55.348Z,1012.97
2022-12-07T03:38:55.345Z,1012.91
2022-12-07T03:39:55.293Z,1012.88
2022-12-07T03:40:55.327Z,1012.88
2022-12-07T03:41:55.263Z,1012.92
2022-12-07T03:42:55.255Z,1012.89
2022-12-07T03:43:55.243Z,1012.96
2022-12-07T03:44:55.260Z,1012.95
2022-12-07T03:45:55.234Z,1012.96
2022-12-07T03:46:55.284Z,1012.93
2022-12-07T03:47:55.237Z,1012.94
2022-12-07T03:48:55.207Z,1012.92
2022-12-07T03:49:55.189Z,1012.89
2022-12-07T03:50:55.169Z,1012.92
2022-12-07T03:51:55.175Z,1012.95
2022-12-07T03:52:55.183Z,1012.95
2022-12-07T03:53:55.136Z,1012.92
2022-12-07T03:54:55.139Z,1012.96
2022-12-07T03:55:55.165Z,1012.94
2022-12-07T03:56:55.106Z,1012.89
2022-12-07T03:57:55.104Z,1012.95
2022-12-07T03:58:55.083Z,1012.88
2022-12-07T03:59:55.087Z,1012.93
2022-12-07T04:00:55.068Z,1012.94
2022-12-07T04:01:55.268Z,1012.92
2022-12-07T04:02:55.120Z,1012.90
2022-12-07T04:03:55.028Z,1012.85
2022-12-07T04:04:55.017Z,1012.89
2022-12-07T04:05:55.052Z,1012.87
2022-12-07T04:06:54.988Z,1012.84
2022-12-07T04:07:55.078Z,1012.90
2022-12-07T04:08:54.966Z,1012.86
2022-12-07T04:09:54.968Z,1012.89
2022-12-07T04:10:54.980Z,1012.88
2022-12-07T04:11:54.938Z,1012.90
2022-12-07T04:12:54.928Z,1012.92
2022-12-07T04:13:54.928Z,1012.89
2022-12-07T04:14:54.905Z,1012.93
2022-12-07T04:15:54.988Z,1012.92
2022-12-07T04:16:54.927Z,1012.87
2022-12-07T04:17:54.880Z,1012.97
2022-12-07T04:18:54.869Z,1012.93
2022-12-07T04:19:54.854Z,1012.92
2022-12-07T04:20:54.840Z,1012.97
2022-12-07T04:21:54.853Z,1012.94
2022-12-07T04:22:54.838Z,1012.90
2022-12-07T04:23:54.828Z,1012.86
2022-12-07T04:24:54.814Z,1012.82
2022-12-07T04:25:54.841Z,1012.86
2022-12-07T04:26:54.769Z,1012.83
2022-12-07T04:27:54.764Z,1012.83
2022-12-07T04:28:54.746Z,1012.88
2022-12-07T04:29:54.750Z,1012.82
2022-12-07T04:30:54.727Z,1012.85
2022-12-07T04:31:54.808Z,1012.83
2022-12-07T04:32:54.722Z,1012.81
2022-12-07T04:33:54.693Z,1012.84
2022-12-07T04:34:55.994Z,1012.79
2022-12-07T04:35:55.136Z,1012.84
2022-12-07T04:36:54.673Z,1012.85
2022-12-07T04:37:54.698Z,1012.89
2022-12-07T04:38:54.644Z,1012.84
2022-12-07T04:39:55.619Z,1012.82
2022-12-07T04:40:54.620Z,1012.84
2022-12-07T04:41:54.604Z,1012.77
2022-12-07T04:42:54.611Z,1012.81
2022-12-07T04:43:54.576Z,1012.83
2022-12-07T04:44:54.623Z,1012.78
2022-12-07T04:45:54.569Z,1012.87
2022-12-07T04:46:54.649Z,1012.81
2022-12-07T04:47:54.535Z,1012.79
2022-12-07T04:48:54.553Z,1012.80
2022-12-07T04:49:54.525Z,1012.84
2022-12-07T04:50:54.508Z,1012.80
2022-12-07T04:51:54.522Z,1012.81
2022-12-07T04:52:54.533Z,1012.87
2022-12-07T04:53:54.475Z,1012.82
2022-12-07T04:54:54.484Z,1012.80
2022-12-07T04:55:54.497Z,1012.84
2022-12-07T04:56:54.452Z,1012.84
2022-12-07T04:57:54.462Z,1012.81
2022-12-07T04:58:54.427Z,1012.83
2022-12-07T04:59:54.403Z,1012.81
2022-12-07T05:00:54.477Z,1012.81
2022-12-07T05:01:54.435Z,1012.79
2022-12-07T05:02:54.379Z,1012.78
2022-12-07T05:03:54.369Z,1012.80
2022-12-07T05:04:54.362Z,1012.83
2022-12-07T05:05:54.493Z,1012.77
2022-12-07T05:06:54.503Z,1012.76
2022-12-07T05:07:55.855Z,1012.80
2022-12-07T05:08:54.338Z,1012.80
2022-12-07T05:09:55.268Z,1012.83
2022-12-07T05:10:54.319Z,1012.79
2022-12-07T05:11:54.313Z,1012.74
2022-12-07T05:12:54.262Z,1012.84
2022-12-07T05:13:54.274Z,1012.83
2022-12-07T05:14:54.799Z,1012.87
2022-12-07T05:15:54.317Z,1012.93
2022-12-07T05:16:54.254Z,1012.81
2022-12-07T05:17:54.223Z,1012.83
2022-12-07T05:18:54.235Z,1012.80
2022-12-07T05:19:54.209Z,1012.85
2022-12-07T05:20:54.238Z,1012.87
2022-12-07T05:21:54.265Z,1012.88
2022-12-07T05:22:54.224Z,1012.84
2022-12-07T05:23:54.162Z,1012.86
2022-12-07T05:24:54.133Z,1012.87
2022-12-07T05:25:54.150Z,1012.92
2022-12-07T05:26:54.168Z,1012.84
2022-12-07T05:27:54.204Z,1012.80
2022-12-07T05:28:54.098Z,1012.84
2022-12-07T05:29:54.112Z,1012.82
2022-12-07T05:30:59.578Z,1012.71
2022-12-07T05:31:55.103Z,1012.81
2022-12-07T05:32:54.079Z,1012.82
2022-12-07T05:33:54.066Z,1012.78
2022-12-07T05:34:54.073Z,1012.85
2022-12-07T05:35:54.033Z,1012.80
2022-12-07T05:36:55.468Z,1012.74
2022-12-07T05:37:54.010Z,1012.85
2022-12-07T05:38:54.006Z,1012.81
2022-12-07T05:39:53.993Z,1012.77
2022-12-07T05:40:53.962Z,1012.78
2022-12-07T05:41:53.952Z,1012.71
2022-12-07T05:42:53.945Z,1012.77
2022-12-07T05:43:53.957Z,1012.75
2022-12-07T05:44:53.954Z,1012.77
2022-12-07T05:45:53.989Z,1012.76
2022-12-07T05:46:53.895Z,1012.68
2022-12-07T05:47:53.936Z,1012.68
2022-12-07T05:48:53.881Z,1012.69
2022-12-07T05:49:53.868Z,1012.70
2022-12-07T05:50:53.859Z,1012.66
2022-12-07T05:51:53.839Z,1012.71
2022-12-07T05:52:53.878Z,1012.71
2022-12-07T05:53:53.818Z,1012.67
2022-12-07T05:54:53.812Z,1012.68
2022-12-07T05:55:53.802Z,1012.66
2022-12-07T05:56:53.791Z,1012.66
2022-12-07T05:57:53.798Z,1012.71
2022-12-07T05:58:53.860Z,1012.74
2022-12-07T05:59:53.748Z,1012.63
2022-12-07T06:00:53.747Z,1012.65
2022-12-07T06:01:53.912Z,1012.72
2022-12-07T06:02:53.807Z,1012.67
2022-12-07T06:03:53.705Z,1012.71
2022-12-07T06:04:53.752Z,1012.72
2022-12-07T06:05:53.745Z,1012.70
2022-12-07T06:06:53.677Z,1012.71
2022-12-07T06:07:53.698Z,1012.73
2022-12-07T06:08:53.664Z,1012.72
2022-12-07T06:09:53.656Z,1012.74
2022-12-07T06:10:53.664Z,1012.70
2022-12-07T06:11:53.619Z,1012.78
2022-12-07T06:12:53.665Z,1012.76
2022-12-07T06:13:53.605Z,1012.73
2022-12-07T06:14:53.595Z,1012.77
2022-12-07T06:15:53.585Z,1012.74
2022-12-07T06:16:54.669Z,1012.73
2022-12-07T06:17:53.585Z,1012.75
2022-12-07T06:18:53.563Z,1012.78
2022-12-07T06:19:53.531Z,1012.79
2022-12-07T06:20:53.523Z,1012.78
2022-12-07T06:21:53.521Z,1012.82
2022-12-07T06:22:53.494Z,1012.75
2022-12-07T06:23:53.511Z,1012.82
2022-12-07T06:24:53.486Z,1012.77
2022-12-07T06:25:53.483Z,1012.78
2022-12-07T06:26:53.460Z,1012.74
2022-12-07T06:27:53.433Z,1012.78
2022-12-07T06:28:53.456Z,1012.72
2022-12-07T06:29:53.463Z,1012.78
2022-12-07T06:30:53.404Z,1012.81
2022-12-07T06:31:53.455Z,1012.75
2022-12-07T06:32:53.423Z,1012.79
2022-12-07T06:33:53.411Z,1012.78
2022-12-07T06:34:53.531Z,1012.78
2022-12-07T06:35:53.349Z,1012.82
2022-12-07T06:36:53.404Z,1012.82
2022-12-07T06:37:54.287Z,1012.84
2022-12-07T06:38:53.330Z,1012.80
2022-12-07T06:39:53.348Z,1012.82
2022-12-07T06:40:53.345Z,1012.86
2022-12-07T06:41:53.326Z,1012.75
2022-12-07T06:42:53.304Z,1012.80
2022-12-07T06:43:56.163Z,1012.75
2022-12-07T06:44:53.277Z,1012.76
2022-12-07T06:45:53.283Z,1012.80
2022-12-07T06:47:02.398Z,1012.76
2022-12-07T06:47:54.216Z,1012.81
2022-12-07T06:48:53.208Z,1012.78
2022-12-07T06:49:53.228Z,1012.77
2022-12-07T06:50:55.351Z,1012.84
2022-12-07T06:51:53.186Z,1012.77
2022-12-07T06:52:53.178Z,1012.88
2022-12-07T06:53:53.172Z,1012.89
2022-12-07T06:54:53.183Z,1012.86
2022-12-07T06:55:53.139Z,1012.87
2022-12-07T06:56:53.128Z,1012.90
2022-12-07T06:57:53.124Z,1012.91
2022-12-07T06:58:53.112Z,1012.90
2022-12-07T06:59:53.099Z,1012.86
2022-12-07T07:00:53.204Z,1012.86
2022-12-07T07:01:53.153Z,1012.86
2022-12-07T07:02:53.196Z,1012.90
2022-12-07T07:03:53.080Z,1012.87
2022-12-07T07:04:53.029Z,1012.91
2022-12-07T07:05:53.019Z,1012.89
2022-12-07T07:06:59.592Z,1012.92
2022-12-07T07:08:54.055Z,1012.86
2022-12-07T07:09:53.091Z,1012.93
2022-12-07T07:10:52.972Z,1012.92
2022-12-07T07:11:53.026Z,1012.91
2022-12-07T07:12:55.911Z,1012.88
2022-12-07T07:13:52.945Z,1012.87
2022-12-07T07:14:52.943Z,1012.93
2022-12-07T07:15:52.913Z,1012.89
2022-12-07T07:16:52.965Z,1012.91
2022-12-07T07:17:53.118Z,1012.92
2022-12-07T07:18:52.906Z,1012.95
2022-12-07T07:19:52.877Z,1012.99
2022-12-07T07:20:52.880Z,1012.95
2022-12-07T07:21:52.851Z,1012.97
2022-12-07T07:22:52.833Z,1012.97
2022-12-07T07:23:52.862Z,1013.00
2022-12-07T07:24:52.829Z,1012.97
2022-12-07T07:25:52.826Z,1012.98
2022-12-07T07:26:52.825Z,1013.02
2022-12-07T07:27:52.779Z,1012.96
2022-12-07T07:28:52.796Z,1013.00
2022-12-07T07:29:52.799Z,1012.95
2022-12-07T07:30:52.957Z,1012.98
2022-12-07T07:31:52.759Z,1012.97
2022-12-07T07:32:52.735Z,1012.99
2022-12-07T07:33:52.736Z,1013.02
2022-12-07T07:34:52.709Z,1012.98
2022-12-07T07:35:52.881Z,1013.01
2022-12-07T07:36:52.678Z,1013.05
2022-12-07T07:37:52.664Z,1012.98
2022-12-07T07:38:52.657Z,1012.95
2022-12-07T07:39:52.638Z,1013.06
2022-12-07T07:40:52.656Z,1012.99
2022-12-07T07:41:52.627Z,1013.00
2022-12-07T07:42:52.646Z,1013.04
2022-12-07T07:43:52.601Z,1013.03
2022-12-07T07:44:52.607Z,1012.98
2022-12-07T07:45:52.615Z,1013.03
2022-12-07T07:46:52.581Z,1013.06
2022-12-07T07:47:52.569Z,1013.10
2022-12-07T07:48:52.588Z,1013.07
2022-12-07T07:49:52.535Z,1013.04
2022-12-07T07:50:52.524Z,1013.13
2022-12-07T07:51:52.513Z,1013.10
2022-12-07T07:52:52.502Z,1013.08
2022-12-07T07:53:52.490Z,1013.05
2022-12-07T07:54:52.539Z,1013.01
2022-12-07T07:55:52.480Z,1013.03
2022-12-07T07:56:52.472Z,1013.08
2022-12-07T07:57:54.956Z,1012.99
2022-12-07T07:58:52.446Z,1013.02
2022-12-07T07:59:52.449Z,1013.01
2022-12-07T08:00:52.412Z,1012.99
2022-12-07T08:01:52.500Z,1012.99
2022-12-07T08:02:52.391Z,1013.00
2022-12-07T08:03:52.373Z,1013.02
2022-12-07T08:04:52.470Z,1013.02
2022-12-07T08:05:52.353Z,1013.03
2022-12-07T08:06:52.362Z,1013.00
2022-12-07T08:07:52.361Z,1013.04
2022-12-07T08:08:52.356Z,1013.00
2022-12-07T08:09:53.263Z,1012.98
2022-12-07T08:10:52.352Z,1013.03
2022-12-07T08:11:52.294Z,1013.09
2022-12-07T08:12:52.292Z,1013.06
2022-12-07T08:13:52.433Z,1013.08
2022-12-07T08:14:52.273Z,1013.12
2022-12-07T08:15:52.270Z,1013.02
2022-12-07T08:16:52.268Z,1013.08
2022-12-07T08:17:52.224Z,1013.04
2022-12-07T08:18:52.219Z,1013.04
2022-12-07T08:19:52.204Z,1013.05
2022-12-07T08:20:52.444Z,1013.03
2022-12-07T08:21:52.212Z,1013.05
2022-12-07T08:22:52.196Z,1013.10
2022-12-07T08:23:52.161Z,1013.12
2022-12-07T08:24:52.153Z,1013.13
2022-12-07T08:25:52.157Z,1013.06
2022-12-07T08:26:52.152Z,1013.14
2022-12-07T08:27:52.122Z,1013.08
2022-12-07T08:28:52.110Z,1013.09
2022-12-07T08:29:52.114Z,1013.18
2022-12-07T08:30:52.124Z,1013.17
2022-12-07T08:31:52.162Z,1013.21
2022-12-07T08:32:52.076Z,1013.21
2022-12-07T08:33:52.093Z,1013.15
2022-12-07T08:34:52.136Z,1013.20
2022-12-07T08:35:52.064Z,1013.16
2022-12-07T08:36:52.811Z,1013.18
2022-12-07T08:37:52.020Z,1013.22
2022-12-07T08:39:29.184Z,1013.17
2022-12-07T08:39:52.988Z,1013.19
2022-12-07T08:40:52.432Z,1013.14
2022-12-07T08:41:52.537Z,1013.17
2022-12-07T08:42:51.961Z,1013.12
2022-12-07T08:43:51.942Z,1013.13
2022-12-07T08:44:51.932Z,1013.05
2022-12-07T08:45:52.166Z,1013.09
2022-12-07T08:46:51.958Z,1013.08
2022-12-07T08:47:52.019Z,1013.07
2022-12-07T08:48:51.882Z,1013.10
2022-12-07T08:49:51.875Z,1013.08
2022-12-07T08:50:51.897Z,1013.09
2022-12-07T08:51:51.868Z,1013.11
2022-12-07T08:52:51.832Z,1013.11
2022-12-07T08:53:51.839Z,1013.05
2022-12-07T08:54:51.840Z,1013.07
2022-12-07T08:55:51.847Z,1013.11
2022-12-07T08:56:56.973Z,1013.10
2022-12-07T08:57:52.802Z,1013.07
2022-12-07T08:58:51.759Z,1013.06
2022-12-07T08:59:51.772Z,1013.09
2022-12-07T09:00:51.811Z,1013.08
2022-12-07T09:01:51.796Z,1013.10
2022-12-07T09:02:51.749Z,1013.12
2022-12-07T09:03:51.733Z,1013.13
2022-12-07T09:04:51.707Z,1013.13
2022-12-07T09:05:51.861Z,1013.09
2022-12-07T09:06:51.740Z,1013.12
2022-12-07T09:07:51.748Z,1013.10
2022-12-07T09:08:51.685Z,1013.05
2022-12-07T09:09:51.650Z,1013.02
2022-12-07T09:10:51.636Z,1013.07
2022-12-07T09:11:51.638Z,1013.03
2022-12-07T09:12:51.640Z,1013.07
2022-12-07T09:13:51.643Z,1013.06
2022-12-07T09:14:51.583Z,1013.06
2022-12-07T09:15:51.645Z,1013.07
2022-12-07T09:16:51.601Z,1013.08
2022-12-07T09:17:51.603Z,1013.03
2022-12-07T09:18:51.553Z,1013.07
2022-12-07T09:19:52.010Z,1013.10
2022-12-07T09:20:51.535Z,1013.14
2022-12-07T09:21:51.534Z,1013.13
2022-12-07T09:22:51.495Z,1013.12
2022-12-07T09:23:51.515Z,1013.14
2022-12-07T09:24:51.474Z,1013.06
2022-12-07T09:25:51.591Z,1013.15
2022-12-07T09:26:51.467Z,1013.10
2022-12-07T09:27:51.459Z,1013.12
2022-12-07T09:28:51.466Z,1013.11
2022-12-07T09:29:51.455Z,1013.12
2022-12-07T09:31:22.205Z,1013.11
2022-12-07T09:31:52.452Z,1013.13
2022-12-07T09:32:51.425Z,1013.09
2022-12-07T09:33:51.415Z,1013.13
2022-12-07T09:34:51.442Z,1013.18
2022-12-07T09:35:51.402Z,1013.17
2022-12-07T09:36:51.348Z,1013.16
2022-12-07T09:37:51.376Z,1013.20
2022-12-07T09:38:51.326Z,1013.14
2022-12-07T09:39:51.331Z,1013.19
2022-12-07T09:40:51.338Z,1013.19
2022-12-07T09:41:51.298Z,1013.16
2022-12-07T09:42:51.342Z,1013.16
2022-12-07T09:43:51.306Z,1013.17
2022-12-07T09:44:51.261Z,1013.09
2022-12-07T09:45:51.256Z,1013.17
2022-12-07T09:46:51.509Z,1013.13
2022-12-07T09:47:51.244Z,1013.10
2022-12-07T09:48:51.292Z,1013.08
2022-12-07T09:49:51.198Z,1013.14
2022-12-07T09:50:51.186Z,1013.14
2022-12-07T09:51:51.184Z,1013.12
2022-12-07T09:52:51.217Z,1013.09
2022-12-07T09:53:51.178Z,1013.04
2022-12-07T09:54:51.148Z,1013.14
2022-12-07T09:55:51.179Z,1013.09
2022-12-07T09:56:51.157Z,1013.10
2022-12-07T09:57:51.146Z,1013.06
2022-12-07T09:58:51.126Z,1013.06
2022-12-07T09:59:51.087Z,1013.07
2022-12-07T10:00:51.096Z,1013.01
2022-12-07T10:01:51.113Z,1013.00
2022-12-07T10:02:51.090Z,1012.98
2022-12-07T10:03:51.056Z,1012.90
2022-12-07T10:04:51.128Z,1012.99
2022-12-07T10:05:51.049Z,1012.92
2022-12-07T10:06:51.016Z,1012.97
2022-12-07T10:07:51.071Z,1012.92
2022-12-07T10:08:51.001Z,1012.98
2022-12-07T10:09:51.002Z,1012.94
2022-12-07T10:10:50.990Z,1012.95
2022-12-07T10:11:51.007Z,1013.00
2022-12-07T10:12:50.938Z,1012.98
2022-12-07T10:13:50.963Z,1012.99
2022-12-07T10:15:06.948Z,1013.00
2022-12-07T10:15:51.992Z,1012.98
2022-12-07T10:16:50.885Z,1012.98
2022-12-07T10:17:50.898Z,1012.95
2022-12-07T10:18:50.893Z,1012.93
2022-12-07T10:19:50.866Z,1012.86
2022-12-07T10:20:50.859Z,1012.89
2022-12-07T10:21:50.841Z,1012.88
2022-12-07T10:22:50.859Z,1012.90
2022-12-07T10:23:50.843Z,1012.85
2022-12-07T10:24:50.824Z,1012.89
2022-12-07T10:25:50.807Z,1012.89
2022-12-07T10:26:50.785Z,1012.84
2022-12-07T10:27:50.787Z,1012.88
2022-12-07T10:28:50.784Z,1012.86
2022-12-07T10:29:50.765Z,1012.85
2022-12-07T10:30:50.821Z,1012.86
2022-12-07T10:31:50.791Z,1012.87
2022-12-07T10:32:50.727Z,1012.85
2022-12-07T10:33:50.724Z,1012.80
2022-12-07T10:34:52.479Z,1012.77
2022-12-07T10:35:50.737Z,1012.80
2022-12-07T10:36:50.676Z,1012.74
2022-12-07T10:37:50.668Z,1012.77
2022-12-07T10:38:50.647Z,1012.75
2022-12-07T10:39:50.647Z,1012.69
2022-12-07T10:40:50.627Z,1012.70
2022-12-07T10:41:50.655Z,1012.68
2022-12-07T10:42:50.614Z,1012.69
2022-12-07T10:43:50.604Z,1012.66
2022-12-07T10:44:50.664Z,1012.59
2022-12-07T10:46:03.361Z,1012.63
2022-12-07T10:46:51.666Z,1012.66
2022-12-07T10:47:50.589Z,1012.58
2022-12-07T10:48:50.547Z,1012.59
2022-12-07T10:49:50.539Z,1012.65
2022-12-07T10:50:50.518Z,1012.65
2022-12-07T10:51:50.524Z,1012.61
2022-12-07T10:52:50.509Z,1012.60
2022-12-07T10:53:50.534Z,1012.61
2022-12-07T10:54:50.466Z,1012.61
2022-12-07T10:55:50.470Z,1012.58
2022-12-07T10:56:52.660Z,1012.56
2022-12-07T10:57:50.445Z,1012.45
2022-12-07T10:58:50.421Z,1012.50
2022-12-07T10:59:50.436Z,1012.50
2022-12-07T11:00:50.466Z,1012.51
2022-12-07T11:01:50.509Z,1012.49
2022-12-07T11:02:50.407Z,1012.54
2022-12-07T11:03:50.374Z,1012.52
2022-12-07T11:04:50.383Z,1012.51
2022-12-07T11:05:50.351Z,1012.48
2022-12-07T11:06:50.336Z,1012.46
2022-12-07T11:07:56.444Z,1012.43
2022-12-07T11:08:51.324Z,1012.41
2022-12-07T11:10:51.288Z,1012.46
2022-12-07T11:11:50.286Z,1012.45
2022-12-07T11:12:50.276Z,1012.38
2022-12-07T11:13:50.481Z,1012.43
2022-12-07T11:14:50.251Z,1012.41
2022-12-07T11:15:50.322Z,1012.45
2022-12-07T11:16:50.281Z,1012.39
2022-12-07T11:17:50.219Z,1012.33
2022-12-07T11:18:50.195Z,1012.36
2022-12-07T11:19:50.193Z,1012.36
2022-12-07T11:20:50.220Z,1012.28
2022-12-07T11:21:50.201Z,1012.29
2022-12-07T11:22:50.153Z,1012.31
2022-12-07T11:23:50.158Z,1012.21
2022-12-07T11:24:50.137Z,1012.25
2022-12-07T11:25:50.159Z,1012.26
2022-12-07T11:26:50.121Z,1012.26
2022-12-07T11:27:50.121Z,1012.22
2022-12-07T11:28:50.102Z,1012.25
2022-12-07T11:29:50.087Z,1012.18
2022-12-07T11:30:50.098Z,1012.20
2022-12-07T11:31:50.107Z,1012.19
2022-12-07T11:32:50.110Z,1012.14
2022-12-07T11:33:50.050Z,1012.16
2022-12-07T11:34:50.029Z,1012.14
2022-12-07T11:35:50.568Z,1012.15
2022-12-07T11:36:50.005Z,1012.12
2022-12-07T11:37:49.988Z,1012.16
2022-12-07T11:38:51.429Z,1012.06
2022-12-07T11:39:49.982Z,1012.12
2022-12-07T11:40:49.980Z,1012.08
2022-12-07T11:41:49.999Z,1012.04
2022-12-07T11:42:49.940Z,1012.06
2022-12-07T11:43:50.226Z,1012.07
2022-12-07T11:44:49.922Z,1012.00
2022-12-07T11:45:49.996Z,1012.01
2022-12-07T11:46:49.931Z,1012.00
2022-12-07T11:47:49.933Z,1011.94
2022-12-07T11:48:49.874Z,1011.98
2022-12-07T11:49:49.937Z,1012.02
2022-12-07T11:50:50.146Z,1011.97
2022-12-07T11:51:50.411Z,1012.02
2022-12-07T11:52:51.272Z,1012.05
2022-12-07T11:53:50.150Z,1012.01
2022-12-07T11:54:49.804Z,1012.07
2022-12-07T11:55:49.877Z,1012.05
2022-12-07T11:56:49.918Z,1012.01
2022-12-07T11:57:49.815Z,1012.04
2022-12-07T11:58:49.909Z,1012.07
2022-12-07T11:59:50.020Z,1012.04
2022-12-07T12:00:49.734Z,1012.00
2022-12-07T12:01:49.762Z,1012.01
2022-12-07T12:02:49.761Z,1012.02
2022-12-07T12:03:53.377Z,1012.01
2022-12-07T12:04:49.717Z,1012.05
2022-12-07T12:05:49.691Z,1011.97
2022-12-07T12:06:50.184Z,1012.03
2022-12-07T12:09:53.426Z,1012.01